sensor_id;sensor_type;location;lat;lon;timestamp;pressure;altitude;pressure_sealevel;temperature;humidity
4570;BME280;2297;51.442;6.996;2023-10-09T00:01:05;100758.47;;;17.29;62.03
4570;BME280;2297;51.442;6.996;2023-10-09T00:03:39;100757.94;;;17.41;61.40
4570;BME280;2297;51.442;6.996;2023-10-09T00:06:06;100754.72;;;17.33;61.80
4570;BME280;2297;51.442;6.996;2023-10-09T00:08:36;100748.72;;;17.49;61.27
4570;BME280;2297;51.442;6.996;2023-10-09T00:11:05;100756.97;;;17.22;61.97
4570;BME280;2297;51.442;6.996;2023-10-09T00:13:43;100762.56;;;17.16;61.77
4570;BME280;2297;51.442;6.996;2023-10-09T00:16:17;100750.56;;;17.26;61.51
4570;BME280;2297;51.442;6.996;2023-10-09T00:18:48;100751.03;;;17.15;61.71
4570;BME280;2297;51.442;6.996;2023-10-09T00:21:15;100749.88;;;17.21;61.49
4570;BME280;2297;51.442;6.996;2023-10-09T00:23:55;100750.56;;;17.26;61.19
4570;BME280;2297;51.442;6.996;2023-10-09T00:26:24;100747.78;;;17.29;61.07
4570;BME280;2297;51.442;6.996;2023-10-09T00:28:51;100749.56;;;17.28;60.73
4570;BME280;2297;51.442;6.996;2023-10-09T00:31:18;100747.19;;;17.22;60.85
4570;BME280;2297;51.442;6.996;2023-10-09T00:33:55;100744.97;;;17.32;60.72
4570;BME280;2297;51.442;6.996;2023-10-09T00:36:26;100738.31;;;17.42;60.25
4570;BME280;2297;51.442;6.996;2023-10-09T00:38:55;100733.97;;;17.40;60.05
4570;BME280;2297;51.442;6.996;2023-10-09T00:41:26;100727.53;;;17.23;60.47
4570;BME280;2297;51.442;6.996;2023-10-09T00:43:54;100728.03;;;17.33;60.29
4570;BME280;2297;51.442;6.996;2023-10-09T00:46:25;100724.22;;;17.39;59.95
4570;BME280;2297;51.442;6.996;2023-10-09T00:48:54;100716.16;;;17.40;60.10
4570;BME280;2297;51.442;6.996;2023-10-09T00:51:23;100713.91;;;17.52;59.77
4570;BME280;2297;51.442;6.996;2023-10-09T00:53:53;100726.50;;;17.48;59.59
4570;BME280;2297;51.442;6.996;2023-10-09T00:56:24;100726.75;;;17.21;60.32
4570;BME280;2297;51.442;6.996;2023-10-09T00:59:04;100717.22;;;17.36;60.06
4570;BME280;2297;51.442;6.996;2023-10-09T01:01:34;100712.13;;;17.30;60.03
4570;BME280;2297;51.442;6.996;2023-10-09T01:04:03;100699.88;;;17.26;60.02
4570;BME280;2297;51.442;6.996;2023-10-09T01:06:35;100687.34;;;17.28;59.88
4570;BME280;2297;51.442;6.996;2023-10-09T01:09:08;100690.31;;;17.20;60.31
4570;BME280;2297;51.442;6.996;2023-10-09T01:11:37;100699.47;;;17.35;60.13
4570;BME280;2297;51.442;6.996;2023-10-09T01:14:13;100690.69;;;17.33;59.85
4570;BME280;2297;51.442;6.996;2023-10-09T01:16:40;100695.72;;;17.39;59.46
4570;BME280;2297;51.442;6.996;2023-10-09T01:19:12;100685.88;;;17.41;59.53
4570;BME280;2297;51.442;6.996;2023-10-09T01:21:49;100692.06;;;17.21;60.08
4570;BME280;2297;51.442;6.996;2023-10-09T01:24:17;100692.78;;;17.25;59.97
4570;BME280;2297;51.442;6.996;2023-10-09T01:26:46;100684.78;;;17.25;59.99
4570;BME280;2297;51.442;6.996;2023-10-09T01:29:18;100695.47;;;17.45;59.34
4570;BME280;2297;51.442;6.996;2023-10-09T01:31:46;100691.53;;;17.34;59.72
4570;BME280;2297;51.442;6.996;2023-10-09T01:34:20;100700.53;;;17.31;59.71
4570;BME280;2297;51.442;6.996;2023-10-09T01:36:50;100696.72;;;17.16;59.83
4570;BME280;2297;51.442;6.996;2023-10-09T01:39:22;100698.25;;;17.22;60.03
4570;BME280;2297;51.442;6.996;2023-10-09T01:41:51;100706.41;;;17.39;59.42
4570;BME280;2297;51.442;6.996;2023-10-09T01:44:25;100705.53;;;17.39;59.33
4570;BME280;2297;51.442;6.996;2023-10-09T01:46:53;100705.53;;;17.39;59.31
4570;BME280;2297;51.442;6.996;2023-10-09T01:51:55;100696.53;;;17.41;59.07
4570;BME280;2297;51.442;6.996;2023-10-09T01:54:26;100698.41;;;17.39;59.04
4570;BME280;2297;51.442;6.996;2023-10-09T01:57:09;100707.63;;;17.32;59.50
4570;BME280;2297;51.442;6.996;2023-10-09T01:59:38;100701.47;;;17.30;59.61
4570;BME280;2297;51.442;6.996;2023-10-09T02:05:17;100703.22;;;17.31;59.44
4570;BME280;2297;51.442;6.996;2023-10-09T02:07:50;100701.47;;;17.30;59.39
4570;BME280;2297;51.442;6.996;2023-10-09T02:10:20;100700.28;;;17.37;59.20
4570;BME280;2297;51.442;6.996;2023-10-09T02:12:58;100701.19;;;17.16;59.93
4570;BME280;2297;51.442;6.996;2023-10-09T02:15:25;100697.34;;;17.23;59.68
4570;BME280;2297;51.442;6.996;2023-10-09T02:18:20;100695.72;;;17.19;59.53
4570;BME280;2297;51.442;6.996;2023-10-09T02:21:06;100687.44;;;17.04;60.12
4570;BME280;2297;51.442;6.996;2023-10-09T02:23:54;100694.41;;;17.29;59.21
4570;BME280;2297;51.442;6.996;2023-10-09T02:26:22;100683.44;;;17.35;59.13
4570;BME280;2297;51.442;6.996;2023-10-09T02:28:51;100684.59;;;17.29;59.28
4570;BME280;2297;51.442;6.996;2023-10-09T02:31:18;100682.25;;;17.22;59.34
4570;BME280;2297;51.442;6.996;2023-10-09T02:33:49;100679.50;;;17.23;59.42
4570;BME280;2297;51.442;6.996;2023-10-09T02:36:18;100686.94;;;17.37;58.93
4570;BME280;2297;51.442;6.996;2023-10-09T02:38:45;100688.53;;;17.41;58.81
4570;BME280;2297;51.442;6.996;2023-10-09T02:41:14;100689.56;;;17.17;59.33
4570;BME280;2297;51.442;6.996;2023-10-09T02:43:53;100690.56;;;17.14;59.52
4570;BME280;2297;51.442;6.996;2023-10-09T02:46:22;100683.44;;;17.35;58.89
4570;BME280;2297;51.442;6.996;2023-10-09T02:48:57;100682.66;;;17.33;58.91
4570;BME280;2297;51.442;6.996;2023-10-09T02:51:25;100682.31;;;17.20;59.35
4570;BME280;2297;51.442;6.996;2023-10-09T02:54:00;100675.00;;;17.25;59.05
4570;BME280;2297;51.442;6.996;2023-10-09T02:56:34;100667.31;;;17.38;58.73
4570;BME280;2297;51.442;6.996;2023-10-09T02:59:03;100676.50;;;17.31;58.78
4570;BME280;2297;51.442;6.996;2023-10-09T03:01:32;100678.00;;;17.38;58.58
4570;BME280;2297;51.442;6.996;2023-10-09T03:04:01;100670.50;;;17.46;58.40
4570;BME280;2297;51.442;6.996;2023-10-09T03:06:28;100657.34;;;17.42;58.34
4570;BME280;2297;51.442;6.996;2023-10-09T03:08:58;100661.50;;;17.28;58.82
4570;BME280;2297;51.442;6.996;2023-10-09T03:11:25;100666.34;;;17.39;58.57
4570;BME280;2297;51.442;6.996;2023-10-09T03:13:53;100667.84;;;17.26;58.95
4570;BME280;2297;51.442;6.996;2023-10-09T03:16:21;100653.41;;;17.30;58.91
4570;BME280;2297;51.442;6.996;2023-10-09T03:18:49;100649.81;;;17.31;58.80
4570;BME280;2297;51.442;6.996;2023-10-09T03:21:17;100652.09;;;17.20;59.08
4570;BME280;2297;51.442;6.996;2023-10-09T03:23:45;100660.25;;;17.37;58.56
4570;BME280;2297;51.442;6.996;2023-10-09T03:26:15;100655.41;;;17.25;58.81
4570;BME280;2297;51.442;6.996;2023-10-09T03:28:43;100650.03;;;17.06;59.26
4570;BME280;2297;51.442;6.996;2023-10-09T03:31:10;100645.03;;;17.19;58.88
4570;BME280;2297;51.442;6.996;2023-10-09T03:33:37;100647.97;;;17.33;58.57
4570;BME280;2297;51.442;6.996;2023-10-09T03:36:04;100637.94;;;17.18;59.07
4570;BME280;2297;51.442;6.996;2023-10-09T03:38:36;100635.81;;;17.26;58.72
4570;BME280;2297;51.442;6.996;2023-10-09T03:41:04;100636.34;;;17.34;58.56
4570;BME280;2297;51.442;6.996;2023-10-09T03:43:32;100626.47;;;17.36;58.31
4570;BME280;2297;51.442;6.996;2023-10-09T03:46:03;100611.13;;;17.21;58.95
4570;BME280;2297;51.442;6.996;2023-10-09T03:48:30;100623.00;;;17.13;58.58
4570;BME280;2297;51.442;6.996;2023-10-09T03:51:02;100609.00;;;17.29;58.27
4570;BME280;2297;51.442;6.996;2023-10-09T03:53:35;100612.88;;;17.22;58.38
4570;BME280;2297;51.442;6.996;2023-10-09T03:56:04;100620.09;;;17.20;58.39
4570;BME280;2297;51.442;6.996;2023-10-09T03:58:37;100622.69;;;17.21;58.47
4570;BME280;2297;51.442;6.996;2023-10-09T04:01:07;100615.78;;;17.16;58.55
4570;BME280;2297;51.442;6.996;2023-10-09T04:03:35;100622.47;;;17.05;58.99
4570;BME280;2297;51.442;6.996;2023-10-09T04:06:02;100616.06;;;17.30;58.24
4570;BME280;2297;51.442;6.996;2023-10-09T04:08:29;100622.72;;;17.40;57.84
4570;BME280;2297;51.442;6.996;2023-10-09T04:11:03;100612.72;;;17.25;58.48
4570;BME280;2297;51.442;6.996;2023-10-09T04:13:31;100607.78;;;17.16;58.74
4570;BME280;2297;51.442;6.996;2023-10-09T04:16:01;100612.78;;;17.23;58.40
4570;BME280;2297;51.442;6.996;2023-10-09T04:18:36;100622.09;;;17.15;58.62
4570;BME280;2297;51.442;6.996;2023-10-09T04:21:04;100610.34;;;17.19;58.54
4570;BME280;2297;51.442;6.996;2023-10-09T04:23:44;100614.25;;;17.10;58.67
4570;BME280;2297;51.442;6.996;2023-10-09T04:26:36;100601.13;;;17.26;58.17
4570;BME280;2297;51.442;6.996;2023-10-09T04:29:05;100601.84;;;17.09;58.54
4570;BME280;2297;51.442;6.996;2023-10-09T04:31:35;100598.41;;;17.07;58.67
4570;BME280;2297;51.442;6.996;2023-10-09T04:34:03;100596.00;;;17.21;58.42
4570;BME280;2297;51.442;6.996;2023-10-09T04:36:48;100610.25;;;17.41;57.76
4570;BME280;2297;51.442;6.996;2023-10-09T04:39:17;100591.09;;;17.31;58.22
4570;BME280;2297;51.442;6.996;2023-10-09T04:42:02;100603.66;;;17.29;58.10
4570;BME280;2297;51.442;6.996;2023-10-09T04:45:01;100600.03;;;17.30;58.07
4570;BME280;2297;51.442;6.996;2023-10-09T04:48:07;100597.19;;;17.35;58.02
4570;BME280;2297;51.442;6.996;2023-10-09T04:50:34;100597.09;;;17.36;57.98
4570;BME280;2297;51.442;6.996;2023-10-09T04:53:31;100600.63;;;17.37;57.88
4570;BME280;2297;51.442;6.996;2023-10-09T04:56:04;100600.19;;;17.06;58.73
4570;BME280;2297;51.442;6.996;2023-10-09T05:01:09;100602.72;;;17.30;58.25
4570;BME280;2297;51.442;6.996;2023-10-09T05:03:41;100607.38;;;17.25;58.24
4570;BME280;2297;51.442;6.996;2023-10-09T05:08:58;100584.44;;;17.21;58.50
4570;BME280;2297;51.442;6.996;2023-10-09T05:11:34;100585.75;;;17.31;58.30
4570;BME280;2297;51.442;6.996;2023-10-09T05:14:22;100581.91;;;16.97;59.14
4570;BME280;2297;51.442;6.996;2023-10-09T05:17:05;100579.13;;;17.00;59.11
4570;BME280;2297;51.442;6.996;2023-10-09T05:19:41;100573.66;;;17.24;58.71
4570;BME280;2297;51.442;6.996;2023-10-09T05:22:09;100575.50;;;17.22;58.68
4570;BME280;2297;51.442;6.996;2023-10-09T05:24:43;100591.38;;;17.25;58.48
4570;BME280;2297;51.442;6.996;2023-10-09T05:27:11;100616.34;;;17.03;59.47
4570;BME280;2297;51.442;6.996;2023-10-09T05:29:45;100605.78;;;17.21;58.83
4570;BME280;2297;51.442;6.996;2023-10-09T05:32:24;100620.28;;;17.36;58.34
4570;BME280;2297;51.442;6.996;2023-10-09T05:34:55;100641.69;;;17.13;58.93
4570;BME280;2297;51.442;6.996;2023-10-09T05:37:40;100644.88;;;17.22;58.93
4570;BME280;2297;51.442;6.996;2023-10-09T05:40:12;100648.97;;;17.31;58.71
4570;BME280;2297;51.442;6.996;2023-10-09T05:42:56;100644.34;;;17.13;58.98
4570;BME280;2297;51.442;6.996;2023-10-09T05:45:30;100643.69;;;17.29;58.64
4570;BME280;2297;51.442;6.996;2023-10-09T05:48:15;100642.06;;;17.45;58.27
4570;BME280;2297;51.442;6.996;2023-10-09T05:50:58;100642.22;;;17.42;57.96
4570;BME280;2297;51.442;6.996;2023-10-09T05:53:37;100644.19;;;17.58;57.79
4570;BME280;2297;51.442;6.996;2023-10-09T05:56:18;100648.16;;;17.49;58.06
4570;BME280;2297;51.442;6.996;2023-10-09T05:58:58;100650.09;;;17.45;58.26
4570;BME280;2297;51.442;6.996;2023-10-09T06:01:44;100668.88;;;17.63;57.62
4570;BME280;2297;51.442;6.996;2023-10-09T06:04:28;100674.25;;;17.42;58.29
4570;BME280;2297;51.442;6.996;2023-10-09T06:07:14;100669.19;;;17.57;57.89
4570;BME280;2297;51.442;6.996;2023-10-09T06:09:49;100670.22;;;17.53;58.11
4570;BME280;2297;51.442;6.996;2023-10-09T06:12:18;100674.22;;;17.63;57.91
4570;BME280;2297;51.442;6.996;2023-10-09T06:15:14;100691.56;;;17.53;58.14
4570;BME280;2297;51.442;6.996;2023-10-09T06:18:18;100688.53;;;17.41;58.36
4570;BME280;2297;51.442;6.996;2023-10-09T06:20:58;100690.16;;;17.65;57.80
4570;BME280;2297;51.442;6.996;2023-10-09T06:23:33;100702.22;;;17.54;57.90
4570;BME280;2297;51.442;6.996;2023-10-09T06:26:14;100701.22;;;17.36;58.71
4570;BME280;2297;51.442;6.996;2023-10-09T06:28:50;100705.06;;;17.50;58.27
4570;BME280;2297;51.442;6.996;2023-10-09T06:31:38;100707.50;;;17.56;58.16
4570;BME280;2297;51.442;6.996;2023-10-09T06:34:20;100703.41;;;17.47;58.46
4570;BME280;2297;51.442;6.996;2023-10-09T06:36:57;100706.00;;;17.49;58.36
4570;BME280;2297;51.442;6.996;2023-10-09T06:39:28;100711.63;;;17.42;58.58
4570;BME280;2297;51.442;6.996;2023-10-09T06:42:13;100704.16;;;17.51;58.42
4570;BME280;2297;51.442;6.996;2023-10-09T06:44:56;100706.00;;;17.28;58.88
4570;BME280;2297;51.442;6.996;2023-10-09T06:47:25;100698.53;;;17.36;58.80
4570;BME280;2297;51.442;6.996;2023-10-09T06:49:52;100695.88;;;17.36;59.09
4570;BME280;2297;51.442;6.996;2023-10-09T06:52:33;100679.72;;;17.39;58.86
4570;BME280;2297;51.442;6.996;2023-10-09T06:55:13;100661.16;;;17.57;58.41
4570;BME280;2297;51.442;6.996;2023-10-09T06:57:45;100671.56;;;17.63;58.32
4570;BME280;2297;51.442;6.996;2023-10-09T07:00:15;100694.91;;;17.58;58.58
4570;BME280;2297;51.442;6.996;2023-10-09T07:02:59;100716.56;;;17.52;58.76
4570;BME280;2297;51.442;6.996;2023-10-09T07:05:37;100702.41;;;17.50;58.71
4570;BME280;2297;51.442;6.996;2023-10-09T07:08:25;100697.47;;;17.61;58.66
4570;BME280;2297;51.442;6.996;2023-10-09T07:11:02;100698.25;;;17.63;58.56
4570;BME280;2297;51.442;6.996;2023-10-09T07:13:46;100697.00;;;17.31;59.78
4570;BME280;2297;51.442;6.996;2023-10-09T07:16:20;100705.34;;;17.43;59.51
4570;BME280;2297;51.442;6.996;2023-10-09T07:18:55;100706.59;;;17.55;59.32
4570;BME280;2297;51.442;6.996;2023-10-09T07:21:36;100709.50;;;17.71;58.49
4570;BME280;2297;51.442;6.996;2023-10-09T07:24:04;100720.72;;;17.79;58.33
4570;BME280;2297;51.442;6.996;2023-10-09T07:26:39;100723.44;;;17.57;58.71
4570;BME280;2297;51.442;6.996;2023-10-09T07:29:12;100722.75;;;17.52;58.94
4570;BME280;2297;51.442;6.996;2023-10-09T07:31:49;100724.88;;;17.66;58.45
4570;BME280;2297;51.442;6.996;2023-10-09T07:34:23;100707.16;;;17.84;57.83
4570;BME280;2297;51.442;6.996;2023-10-09T07:37:20;100696.28;;;17.68;58.31
4570;BME280;2297;51.442;6.996;2023-10-09T07:39:49;100679.84;;;17.36;58.95
4570;BME280;2297;51.442;6.996;2023-10-09T07:42:22;100665.81;;;17.72;58.25
4570;BME280;2297;51.442;6.996;2023-10-09T07:44:59;100653.41;;;17.71;58.25
4570;BME280;2297;51.442;6.996;2023-10-09T07:47:37;100646.59;;;17.64;58.47
4570;BME280;2297;51.442;6.996;2023-10-09T07:50:26;100664.25;;;17.87;57.82
4570;BME280;2297;51.442;6.996;2023-10-09T07:53:04;100665.28;;;17.85;57.53
4570;BME280;2297;51.442;6.996;2023-10-09T07:55:51;100667.00;;;17.86;57.65
4570;BME280;2297;51.442;6.996;2023-10-09T07:58:21;100673.72;;;17.75;57.91
4570;BME280;2297;51.442;6.996;2023-10-09T08:00:51;100685.50;;;17.90;57.61
4570;BME280;2297;51.442;6.996;2023-10-09T08:03:32;100675.97;;;18.04;57.14
4570;BME280;2297;51.442;6.996;2023-10-09T08:05:59;100696.28;;;17.68;58.37
4570;BME280;2297;51.442;6.996;2023-10-09T08:08:33;100701.22;;;17.96;57.62
4570;BME280;2297;51.442;6.996;2023-10-09T08:11:26;100721.34;;;18.05;57.32
4570;BME280;2297;51.442;6.996;2023-10-09T08:14:09;100740.00;;;18.26;57.01
4570;BME280;2297;51.442;6.996;2023-10-09T08:16:59;100737.22;;;18.08;57.37
4570;BME280;2297;51.442;6.996;2023-10-09T08:19:37;100747.94;;;18.27;56.62
4570;BME280;2297;51.442;6.996;2023-10-09T08:22:20;100757.53;;;18.12;57.23
4570;BME280;2297;51.442;6.996;2023-10-09T08:25:06;100758.16;;;18.18;56.84
4570;BME280;2297;51.442;6.996;2023-10-09T08:27:33;100750.38;;;18.32;56.49
4570;BME280;2297;51.442;6.996;2023-10-09T08:30:20;100734.22;;;18.35;56.37
4570;BME280;2297;51.442;6.996;2023-10-09T08:33:06;100718.84;;;18.40;56.49
4570;BME280;2297;51.442;6.996;2023-10-09T08:35:51;100726.84;;;18.40;56.49
4570;BME280;2297;51.442;6.996;2023-10-09T08:38:20;100731.59;;;18.15;57.28
4570;BME280;2297;51.442;6.996;2023-10-09T08:40:51;100730.50;;;18.19;57.33
4570;BME280;2297;51.442;6.996;2023-10-09T08:43:23;100726.66;;;18.05;58.17
4570;BME280;2297;51.442;6.996;2023-10-09T08:45:54;100707.78;;;17.70;59.44
4570;BME280;2297;51.442;6.996;2023-10-09T08:48:26;100722.97;;;17.48;60.44
4570;BME280;2297;51.442;6.996;2023-10-09T08:50:55;100715.22;;;17.83;59.44
4570;BME280;2297;51.442;6.996;2023-10-09T08:53:23;100685.84;;;17.83;59.53
4570;BME280;2297;51.442;6.996;2023-10-09T08:55:54;100668.31;;;17.77;59.81
4570;BME280;2297;51.442;6.996;2023-10-09T08:58:21;100645.84;;;17.81;60.15
4570;BME280;2297;51.442;6.996;2023-10-09T09:00:50;100621.69;;;18.03;59.57
4570;BME280;2297;51.442;6.996;2023-10-09T09:03:18;100601.13;;;18.23;58.92
4570;BME280;2297;51.442;6.996;2023-10-09T09:05:56;100586.38;;;18.33;58.82
4570;BME280;2297;51.442;6.996;2023-10-09T09:08:23;100601.03;;;17.88;59.55
4570;BME280;2297;51.442;6.996;2023-10-09T09:10:57;100595.38;;;18.13;59.29
4570;BME280;2297;51.442;6.996;2023-10-09T09:13:31;100599.56;;;18.19;59.16
4570;BME280;2297;51.442;6.996;2023-10-09T09:15:59;100606.13;;;18.50;58.18
4570;BME280;2297;51.442;6.996;2023-10-09T09:18:28;100615.94;;;18.30;58.89
4570;BME280;2297;51.442;6.996;2023-10-09T09:21:17;100643.59;;;18.67;57.58
4570;BME280;2297;51.442;6.996;2023-10-09T09:23:53;100665.72;;;18.52;57.24
4570;BME280;2297;51.442;6.996;2023-10-09T09:26:40;100664.19;;;18.83;56.77
4570;BME280;2297;51.442;6.996;2023-10-09T09:29:11;100648.31;;;18.79;56.90
4570;BME280;2297;51.442;6.996;2023-10-09T09:31:51;100631.56;;;19.11;55.89
4570;BME280;2297;51.442;6.996;2023-10-09T09:34:18;100635.66;;;19.01;55.76
4570;BME280;2297;51.442;6.996;2023-10-09T09:36:52;100629.75;;;18.94;56.12
4570;BME280;2297;51.442;6.996;2023-10-09T09:39:22;100638.56;;;18.96;56.18
4570;BME280;2297;51.442;6.996;2023-10-09T09:41:58;100640.75;;;18.70;57.03
4570;BME280;2297;51.442;6.996;2023-10-09T09:44:34;100643.59;;;18.67;56.89
4570;BME280;2297;51.442;6.996;2023-10-09T09:47:09;100653.66;;;18.79;56.56
4570;BME280;2297;51.442;6.996;2023-10-09T09:49:38;100662.22;;;19.23;55.32
4570;BME280;2297;51.442;6.996;2023-10-09T09:52:07;100673.69;;;19.42;54.77
4570;BME280;2297;51.442;6.996;2023-10-09T09:54:36;100666.69;;;19.22;55.21
4570;BME280;2297;51.442;6.996;2023-10-09T09:57:05;100681.41;;;19.31;54.81
4570;BME280;2297;51.442;6.996;2023-10-09T09:59:38;100689.06;;;19.21;54.98
4570;BME280;2297;51.442;6.996;2023-10-09T10:02:20;100694.19;;;19.26;54.58
4570;BME280;2297;51.442;6.996;2023-10-09T10:04:52;100694.72;;;19.33;54.59
4570;BME280;2297;51.442;6.996;2023-10-09T10:07:22;100689.81;;;19.41;54.22
4570;BME280;2297;51.442;6.996;2023-10-09T10:09:50;100700.66;;;19.73;53.45
4570;BME280;2297;51.442;6.996;2023-10-09T10:15:59;100694.47;;;19.20;54.11
4570;BME280;2297;51.442;6.996;2023-10-09T10:18:31;100709.44;;;19.24;54.03
4570;BME280;2297;51.442;6.996;2023-10-09T10:21:10;100701.44;;;19.75;53.06
4570;BME280;2297;51.442;6.996;2023-10-09T10:23:42;100708.03;;;19.34;54.39
4570;BME280;2297;51.442;6.996;2023-10-09T10:26:20;100705.47;;;19.84;53.10
4570;BME280;2297;51.442;6.996;2023-10-09T10:29:14;100699.91;;;20.04;52.60
4570;BME280;2297;51.442;6.996;2023-10-09T10:31:56;100697.25;;;19.87;52.83
4570;BME280;2297;51.442;6.996;2023-10-09T10:34:25;100700.09;;;19.84;53.42
4570;BME280;2297;51.442;6.996;2023-10-09T10:36:53;100698.38;;;19.83;52.97
4570;BME280;2297;51.442;6.996;2023-10-09T10:39:25;100707.53;;;19.78;53.15
4570;BME280;2297;51.442;6.996;2023-10-09T10:42:06;100707.03;;;19.88;52.90
4570;BME280;2297;51.442;6.996;2023-10-09T10:44:35;100704.00;;;19.60;52.93
4570;BME280;2297;51.442;6.996;2023-10-09T10:47:05;100698.38;;;20.32;51.68
4570;BME280;2297;51.442;6.996;2023-10-09T10:49:48;100702.06;;;20.14;52.03
4570;BME280;2297;51.442;6.996;2023-10-09T10:52:24;100698.16;;;20.03;52.61
4570;BME280;2297;51.442;6.996;2023-10-09T10:55:08;100700.19;;;20.16;52.06
4570;BME280;2297;51.442;6.996;2023-10-09T10:57:44;100692.56;;;20.56;51.22
4570;BME280;2297;51.442;6.996;2023-10-09T11:00:26;100698.16;;;20.03;51.46
4570;BME280;2297;51.442;6.996;2023-10-09T11:03:12;100692.75;;;20.21;51.04
4570;BME280;2297;51.442;6.996;2023-10-09T11:05:45;100704.81;;;19.96;51.64
4570;BME280;2297;51.442;6.996;2023-10-09T11:08:17;100701.19;;;19.97;51.88
4570;BME280;2297;51.442;6.996;2023-10-09T11:10:49;100705.19;;;20.22;50.68
4570;BME280;2297;51.442;6.996;2023-10-09T11:13:25;100692.81;;;20.35;50.30
4570;BME280;2297;51.442;6.996;2023-10-09T11:16:00;100698.78;;;20.40;50.01
4570;BME280;2297;51.442;6.996;2023-10-09T11:18:55;100694.56;;;19.87;51.51
4570;BME280;2297;51.442;6.996;2023-10-09T11:21:29;100703.81;;;20.15;50.86
4570;BME280;2297;51.442;6.996;2023-10-09T11:24:07;100713.31;;;20.20;50.80
4570;BME280;2297;51.442;6.996;2023-10-09T11:26:51;100701.75;;;20.52;50.40
4570;BME280;2297;51.442;6.996;2023-10-09T11:29:22;100709.38;;;19.94;51.89
4570;BME280;2297;51.442;6.996;2023-10-09T11:32:16;100703.50;;;20.37;51.00
4570;BME280;2297;51.442;6.996;2023-10-09T11:34:45;100697.25;;;20.36;51.00
4570;BME280;2297;51.442;6.996;2023-10-09T11:37:18;100696.88;;;20.10;51.62
4570;BME280;2297;51.442;6.996;2023-10-09T11:39:58;100712.91;;;20.60;50.24
4570;BME280;2297;51.442;6.996;2023-10-09T11:42:25;100710.47;;;19.90;52.26
4570;BME280;2297;51.442;6.996;2023-10-09T11:45:03;100703.47;;;20.21;51.37
4570;BME280;2297;51.442;6.996;2023-10-09T11:47:45;100695.34;;;20.38;50.89
4570;BME280;2297;51.442;6.996;2023-10-09T11:50:20;100698.44;;;20.15;51.91
4570;BME280;2297;51.442;6.996;2023-10-09T11:52:58;100693.03;;;20.64;50.44
4570;BME280;2297;51.442;6.996;2023-10-09T11:55:36;100697.84;;;20.41;51.12
4570;BME280;2297;51.442;6.996;2023-10-09T11:58:02;100696.38;;;20.84;50.03
4570;BME280;2297;51.442;6.996;2023-10-09T12:00:30;100690.84;;;20.23;51.24
4570;BME280;2297;51.442;6.996;2023-10-09T12:03:06;100688.69;;;20.45;50.68
4570;BME280;2297;51.442;6.996;2023-10-09T12:05:35;100690.00;;;20.70;49.75
4570;BME280;2297;51.442;6.996;2023-10-09T12:08:03;100681.94;;;21.17;48.71
4570;BME280;2297;51.442;6.996;2023-10-09T12:10:34;100682.63;;;20.90;48.64
4570;BME280;2297;51.442;6.996;2023-10-09T12:13:03;100682.66;;;21.04;48.72
4570;BME280;2297;51.442;6.996;2023-10-09T12:15:30;100685.91;;;20.79;49.06
4570;BME280;2297;51.442;6.996;2023-10-09T12:18:33;100691.22;;;20.49;49.85
4570;BME280;2297;51.442;6.996;2023-10-09T12:21:01;100675.84;;;20.83;49.49
4570;BME280;2297;51.442;6.996;2023-10-09T12:23:30;100668.28;;;21.50;47.83
4570;BME280;2297;51.442;6.996;2023-10-09T12:26:01;100670.06;;;21.80;47.62
4570;BME280;2297;51.442;6.996;2023-10-09T12:28:27;100673.00;;;21.75;47.69
4570;BME280;2297;51.442;6.996;2023-10-09T12:30:55;100667.63;;;21.61;47.92
4570;BME280;2297;51.442;6.996;2023-10-09T12:33:27;100674.16;;;21.57;47.75
4570;BME280;2297;51.442;6.996;2023-10-09T12:39:18;100686.84;;;21.55;47.97
4570;BME280;2297;51.442;6.996;2023-10-09T12:41:44;100679.72;;;21.54;47.35
4570;BME280;2297;51.442;6.996;2023-10-09T12:44:11;100681.94;;;21.17;47.86
4570;BME280;2297;51.442;6.996;2023-10-09T12:46:40;100682.13;;;20.98;48.57
4570;BME280;2297;51.442;6.996;2023-10-09T12:49:07;100675.59;;;20.87;48.71
4570;BME280;2297;51.442;6.996;2023-10-09T12:51:35;100689.47;;;20.64;49.41
4570;BME280;2297;51.442;6.996;2023-10-09T12:54:05;100689.88;;;20.88;48.71
4570;BME280;2297;51.442;6.996;2023-10-09T12:56:34;100682.66;;;21.04;48.72
4570;BME280;2297;51.442;6.996;2023-10-09T12:59:03;100687.34;;;21.31;47.85
4570;BME280;2297;51.442;6.996;2023-10-09T13:01:30;100686.22;;;21.35;47.63
4570;BME280;2297;51.442;6.996;2023-10-09T13:04:03;100689.38;;;21.11;48.35
4570;BME280;2297;51.442;6.996;2023-10-09T13:06:54;100688.03;;;21.04;48.74
4570;BME280;2297;51.442;6.996;2023-10-09T13:09:27;100678.66;;;21.11;48.37
4570;BME280;2297;51.442;6.996;2023-10-09T13:12:01;100685.66;;;21.44;47.50
4570;BME280;2297;51.442;6.996;2023-10-09T13:14:28;100690.72;;;21.04;48.27
4570;BME280;2297;51.442;6.996;2023-10-09T13:16:55;100684.22;;;21.08;48.49
4570;BME280;2297;51.442;6.996;2023-10-09T13:19:21;100672.53;;;21.24;48.08
4570;BME280;2297;51.442;6.996;2023-10-09T13:21:49;100676.38;;;21.65;47.28
4570;BME280;2297;51.442;6.996;2023-10-09T13:24:16;100673.38;;;21.40;47.93
4570;BME280;2297;51.442;6.996;2023-10-09T13:26:45;100676.84;;;21.57;47.27
4570;BME280;2297;51.442;6.996;2023-10-09T13:29:17;100681.03;;;21.47;48.00
4570;BME280;2297;51.442;6.996;2023-10-09T13:31:48;100675.03;;;21.86;47.07
4570;BME280;2297;51.442;6.996;2023-10-09T13:34:16;100677.78;;;22.42;45.88
4570;BME280;2297;51.442;6.996;2023-10-09T13:36:43;100677.94;;;22.39;45.74
4570;BME280;2297;51.442;6.996;2023-10-09T13:39:16;100673.47;;;22.67;45.34
4570;BME280;2297;51.442;6.996;2023-10-09T13:41:50;100670.97;;;22.64;44.67
4570;BME280;2297;51.442;6.996;2023-10-09T13:44:24;100677.00;;;22.40;45.01
4570;BME280;2297;51.442;6.996;2023-10-09T13:46:53;100663.63;;;22.53;45.17
4570;BME280;2297;51.442;6.996;2023-10-09T13:49:20;100660.50;;;22.32;45.57
4570;BME280;2297;51.442;6.996;2023-10-09T13:51:48;100668.63;;;22.03;46.15
4570;BME280;2297;51.442;6.996;2023-10-09T13:54:16;100676.97;;;21.84;47.01
4570;BME280;2297;51.442;6.996;2023-10-09T13:56:46;100676.16;;;21.97;46.27
4570;BME280;2297;51.442;6.996;2023-10-09T13:59:18;100671.00;;;21.79;46.86
4570;BME280;2297;51.442;6.996;2023-10-09T14:01:47;100670.72;;;21.69;47.10
4570;BME280;2297;51.442;6.996;2023-10-09T14:04:14;100670.69;;;21.84;46.56